createdAt,value
2022-12-24T00:01:16.985Z,4.80
2022-12-24T00:03:50.083Z,8.35
2022-12-24T00:06:24.328Z,7.18
2022-12-24T00:08:56.853Z,7.50
2022-12-24T00:11:29.491Z,6.40
2022-12-24T00:14:02.089Z,4.18
2022-12-24T00:16:34.711Z,5.78
2022-12-24T00:19:07.418Z,6.72
2022-12-24T00:21:40.046Z,11.43
2022-12-24T00:24:12.656Z,3.78
2022-12-24T00:26:45.542Z,6.53
2022-12-24T00:29:18.210Z,8.95
2022-12-24T00:31:50.828Z,4.15
2022-12-24T00:34:26.374Z,5.15
2022-12-24T00:36:58.924Z,5.13
2022-12-24T00:39:31.876Z,6.82
2022-12-24T00:42:04.549Z,7.88
2022-12-24T00:44:37.161Z,5.55
2022-12-24T00:47:12.166Z,8.25
2022-12-24T00:49:45.012Z,11.18
2022-12-24T00:52:17.573Z,9.88
2022-12-24T00:54:50.146Z,8.73
2022-12-24T00:57:22.740Z,6.72
2022-12-24T00:59:55.459Z,4.70
2022-12-24T01:02:28.136Z,6.47
2022-12-24T01:05:12.479Z,3.03
2022-12-24T01:07:45.324Z,5.20
2022-12-24T01:10:20.184Z,3.97
2022-12-24T01:12:52.782Z,7.47
2022-12-24T01:15:25.313Z,3.50
2022-12-24T01:17:58.716Z,5.22
2022-12-24T01:20:33.257Z,5.20
2022-12-24T01:23:06.079Z,5.10
2022-12-24T01:25:39.536Z,4.70
2022-12-24T01:28:12.100Z,5.00
2022-12-24T01:30:44.735Z,5.25
2022-12-24T01:33:17.340Z,3.90
2022-12-24T01:35:49.986Z,4.63
2022-12-24T01:38:22.549Z,5.03
2022-12-24T01:41:13.662Z,8.55
2022-12-24T01:43:46.316Z,4.88
2022-12-24T01:46:28.481Z,6.35
2022-12-24T01:49:04.697Z,8.05
2022-12-24T01:51:46.608Z,2.35
2022-12-24T01:54:33.386Z,3.63
2022-12-24T01:57:13.786Z,5.00
2022-12-24T01:59:51.384Z,5.10
2022-12-24T02:02:24.604Z,4.80
2022-12-24T02:07:46.200Z,3.92
2022-12-24T02:12:52.784Z,3.20
2022-12-24T02:15:26.962Z,5.30
2022-12-24T02:18:11.281Z,2.50
2022-12-24T02:21:22.674Z,3.63
2022-12-24T02:24:09.964Z,6.00
2022-12-24T02:26:56.181Z,3.65
2022-12-24T02:29:59.895Z,4.13
2022-12-24T02:32:47.206Z,3.72
2022-12-24T02:35:53.780Z,2.35
2022-12-24T02:38:47.310Z,2.08
2022-12-24T02:42:07.539Z,6.00
2022-12-24T02:44:54.064Z,4.63
2022-12-24T02:47:28.957Z,4.38
2022-12-24T02:50:02.917Z,3.00
2022-12-24T02:52:44.730Z,2.53
2022-12-24T02:55:17.311Z,3.13
2022-12-24T02:58:11.649Z,3.42
2022-12-24T03:01:16.653Z,3.97
2022-12-24T03:03:52.088Z,3.80
2022-12-24T03:07:01.038Z,5.63
2022-12-24T03:09:48.085Z,3.78
2022-12-24T03:12:38.467Z,3.15
2022-12-24T03:15:13.817Z,2.42
2022-12-24T03:17:49.404Z,5.90
2022-12-24T03:20:38.796Z,2.85
2022-12-24T03:23:11.934Z,3.38
2022-12-24T03:25:45.817Z,4.22
2022-12-24T03:28:20.364Z,3.20
2022-12-24T03:30:53.171Z,3.33
2022-12-24T03:33:25.778Z,4.70
2022-12-24T03:35:58.431Z,3.00
2022-12-24T03:38:31.539Z,5.88
2022-12-24T03:41:04.433Z,3.28
2022-12-24T03:43:36.959Z,3.67
2022-12-24T03:46:09.667Z,4.63
2022-12-24T03:48:42.231Z,3.85
2022-12-24T03:51:23.743Z,3.85
2022-12-24T03:53:59.226Z,4.40
2022-12-24T03:56:31.747Z,4.28
2022-12-24T03:59:04.239Z,6.57
2022-12-24T04:01:36.927Z,3.72
2022-12-24T04:04:09.744Z,3.70
2022-12-24T04:06:42.438Z,5.90
2022-12-24T04:09:15.127Z,4.35
2022-12-24T04:11:47.659Z,4.05
2022-12-24T04:14:20.211Z,4.43
2022-12-24T04:16:53.817Z,5.75
2022-12-24T04:19:26.646Z,3.88
2022-12-24T04:21:59.430Z,3.50
2022-12-24T04:24:32.056Z,4.68
2022-12-24T04:27:04.700Z,3.95
2022-12-24T04:29:37.349Z,3.90
2022-12-24T04:32:10.584Z,2.55
2022-12-24T04:37:15.671Z,6.00
2022-12-24T04:39:48.207Z,3.70
2022-12-24T04:42:20.784Z,3.92
2022-12-24T04:44:56.124Z,3.90
2022-12-24T04:47:28.801Z,9.55
2022-12-24T04:50:01.810Z,5.18
2022-12-24T04:52:35.008Z,5.82
2022-12-24T04:57:40.397Z,3.25
2022-12-24T05:00:13.498Z,8.27
2022-12-24T05:02:46.113Z,3.40
2022-12-24T05:05:18.790Z,4.70
2022-12-24T05:07:51.335Z,6.13
2022-12-24T05:10:23.972Z,4.65
2022-12-24T05:12:56.753Z,3.30
2022-12-24T05:15:29.431Z,5.38
2022-12-24T05:18:01.940Z,7.43
2022-12-24T05:20:34.466Z,3.73
2022-12-24T05:23:25.110Z,4.13
2022-12-24T05:26:16.300Z,2.90
2022-12-24T05:28:50.639Z,3.42
2022-12-24T05:31:25.010Z,2.42
2022-12-24T05:33:57.757Z,3.80
2022-12-24T05:36:30.707Z,2.28
2022-12-24T05:39:05.408Z,3.25
2022-12-24T05:41:39.741Z,1.85
2022-12-24T05:44:12.424Z,4.75
2022-12-24T05:46:45.677Z,3.03
2022-12-24T05:51:50.898Z,6.15
2022-12-24T05:54:23.433Z,1.80
2022-12-24T05:56:55.984Z,4.22
2022-12-24T05:59:28.961Z,4.47
2022-12-24T06:02:01.554Z,3.50
2022-12-24T06:04:34.301Z,3.13
2022-12-24T06:07:06.836Z,3.63
2022-12-24T06:09:39.487Z,8.63
2022-12-24T06:12:12.011Z,7.70
2022-12-24T06:14:44.688Z,10.32
2022-12-24T06:17:17.454Z,5.07
2022-12-24T06:19:50.085Z,5.43
2022-12-24T06:22:22.666Z,7.03
2022-12-24T06:24:55.309Z,6.78
2022-12-24T06:27:27.958Z,4.00
2022-12-24T06:30:00.462Z,3.55
2022-12-24T06:32:33.518Z,5.50
2022-12-24T06:35:06.276Z,4.25
2022-12-24T06:37:39.006Z,5.22
2022-12-24T06:40:11.712Z,11.48
2022-12-24T06:42:44.293Z,8.18
2022-12-24T06:45:16.819Z,6.28
2022-12-24T06:47:49.466Z,7.18
2022-12-24T06:50:22.093Z,5.70
2022-12-24T06:52:55.007Z,6.50
2022-12-24T06:55:27.612Z,5.47
2022-12-24T06:58:00.182Z,4.68
2022-12-24T07:00:32.692Z,6.05
2022-12-24T07:03:05.243Z,9.20
2022-12-24T07:05:37.780Z,4.90
2022-12-24T07:08:10.487Z,6.47
2022-12-24T07:10:43.865Z,7.97
2022-12-24T07:13:19.827Z,9.23
2022-12-24T07:16:00.707Z,8.00
2022-12-24T07:18:33.705Z,9.38
2022-12-24T07:21:07.515Z,10.77
2022-12-24T07:23:40.139Z,9.27
2022-12-24T07:26:12.826Z,14.10
2022-12-24T07:28:45.325Z,16.65
2022-12-24T07:31:18.038Z,11.07
2022-12-24T07:33:50.925Z,12.60
2022-12-24T07:36:23.610Z,13.05
2022-12-24T07:38:57.070Z,12.63
2022-12-24T07:41:29.764Z,10.10
2022-12-24T07:44:02.310Z,14.82
2022-12-24T07:46:36.015Z,11.85
2022-12-24T07:49:33.534Z,10.85
2022-12-24T07:52:06.282Z,33.05
2022-12-24T07:54:38.811Z,32.13
2022-12-24T07:57:11.410Z,9.52
2022-12-24T07:59:44.046Z,10.73
2022-12-24T08:02:18.613Z,8.98
2022-12-24T08:04:51.529Z,10.45
2022-12-24T08:07:24.123Z,20.48
2022-12-24T08:09:56.681Z,9.00
2022-12-24T08:12:29.885Z,15.02
2022-12-24T08:15:06.091Z,11.15
2022-12-24T08:20:11.611Z,16.52
2022-12-24T08:23:10.018Z,11.98
2022-12-24T08:25:48.122Z,8.65
2022-12-24T08:28:21.328Z,17.42
2022-12-24T08:30:54.131Z,10.13
2022-12-24T08:33:26.691Z,13.10
2022-12-24T08:36:01.056Z,8.90
2022-12-24T08:38:33.634Z,10.27
2022-12-24T08:41:06.295Z,9.10
2022-12-24T08:43:38.942Z,12.68
2022-12-24T08:46:11.571Z,11.25
2022-12-24T08:48:44.187Z,9.27
2022-12-24T08:51:17.121Z,14.77
2022-12-24T08:53:49.779Z,15.52
2022-12-24T08:56:22.367Z,8.88
2022-12-24T08:58:55.049Z,14.93
2022-12-24T09:01:27.752Z,12.15
2022-12-24T09:04:02.359Z,9.10
2022-12-24T09:06:34.978Z,8.23
2022-12-24T09:09:07.741Z,8.52
2022-12-24T09:11:40.428Z,11.80
2022-12-24T09:14:12.981Z,7.25
2022-12-24T09:16:45.687Z,11.17
2022-12-24T09:19:19.303Z,9.70
2022-12-24T09:21:51.885Z,7.88
2022-12-24T09:24:24.528Z,6.25
2022-12-24T09:26:58.410Z,6.82
2022-12-24T09:29:31.832Z,9.07
2022-12-24T09:32:04.728Z,7.72
2022-12-24T09:34:37.564Z,5.85
2022-12-24T09:37:10.221Z,9.38
2022-12-24T09:39:42.860Z,9.43
2022-12-24T09:42:30.261Z,9.43
2022-12-24T09:45:35.154Z,11.50
2022-12-24T09:48:19.467Z,10.27
2022-12-24T09:51:11.823Z,10.43
2022-12-24T09:54:24.138Z,7.90
2022-12-24T09:57:01.885Z,9.05
2022-12-24T09:59:49.033Z,11.10
2022-12-24T10:02:23.075Z,14.40
2022-12-24T10:05:01.652Z,10.23
2022-12-24T10:07:37.293Z,9.20
2022-12-24T10:10:25.352Z,9.35
2022-12-24T10:13:24.346Z,9.00
2022-12-24T10:16:33.745Z,10.13
2022-12-24T10:19:33.720Z,7.00
2022-12-24T10:22:27.975Z,8.48
2022-12-24T10:25:15.716Z,3.85
2022-12-24T10:27:49.141Z,8.07
2022-12-24T10:30:23.682Z,4.65
2022-12-24T10:32:56.574Z,7.47
2022-12-24T10:35:37.036Z,7.10
2022-12-24T10:38:10.072Z,4.47
2022-12-24T10:40:47.541Z,5.60
2022-12-24T10:43:23.000Z,6.13
2022-12-24T10:46:15.807Z,9.38
2022-12-24T10:48:57.409Z,8.68
2022-12-24T10:52:18.702Z,5.53
2022-12-24T10:55:14.450Z,7.70
2022-12-24T10:57:57.229Z,7.07
2022-12-24T11:00:35.861Z,7.78
2022-12-24T11:03:22.776Z,7.80
2022-12-24T11:06:18.590Z,4.22
2022-12-24T11:08:51.291Z,5.82
2022-12-24T11:11:24.379Z,4.40
2022-12-24T11:16:33.794Z,5.80
2022-12-24T11:19:16.146Z,4.32
2022-12-24T11:21:48.959Z,6.20
2022-12-24T11:24:29.239Z,4.20
2022-12-24T11:27:32.545Z,4.38
2022-12-24T11:30:17.236Z,4.45
2022-12-24T11:33:10.133Z,4.40
2022-12-24T11:35:48.223Z,3.92
2022-12-24T11:38:57.052Z,6.72
2022-12-24T11:41:37.804Z,5.10
2022-12-24T11:44:12.821Z,4.05
2022-12-24T11:46:47.438Z,3.20
2022-12-24T11:49:32.962Z,3.10
2022-12-24T11:52:11.645Z,5.45
2022-12-24T11:55:16.556Z,5.00
2022-12-24T11:57:53.170Z,3.17
2022-12-24T12:00:27.334Z,7.32
2022-12-24T12:03:02.886Z,3.33
2022-12-24T12:05:36.567Z,4.60
2022-12-24T12:08:17.957Z,5.38
2022-12-24T12:10:52.976Z,3.35
2022-12-24T12:13:33.536Z,6.47
2022-12-24T12:16:29.008Z,3.40
2022-12-24T12:19:08.755Z,4.20
2022-12-24T12:21:48.272Z,6.75
2022-12-24T12:24:31.649Z,4.63
2022-12-24T12:27:43.544Z,4.85
2022-12-24T12:30:22.083Z,5.13
2022-12-24T12:33:25.942Z,3.10
2022-12-24T12:38:33.994Z,4.22
2022-12-24T12:41:19.306Z,4.25
2022-12-24T12:44:16.373Z,2.88
2022-12-24T12:47:04.141Z,2.75
2022-12-24T12:50:08.962Z,3.33
2022-12-24T12:53:08.997Z,5.22
2022-12-24T12:56:00.440Z,1.58
2022-12-24T12:58:55.536Z,6.50
2022-12-24T13:01:47.619Z,2.33
2022-12-24T13:04:29.414Z,5.88
2022-12-24T13:07:39.605Z,2.45
2022-12-24T13:10:41.258Z,5.93
2022-12-24T13:13:47.789Z,5.40
2022-12-24T13:16:32.497Z,5.93
2022-12-24T13:19:34.399Z,2.97
2022-12-24T13:22:22.207Z,4.97
2022-12-24T13:24:57.048Z,2.40
2022-12-24T13:27:31.740Z,2.35
2022-12-24T13:30:27.483Z,2.17
2022-12-24T13:33:00.017Z,4.35
2022-12-24T13:35:38.205Z,3.22
2022-12-24T13:38:29.756Z,6.55
2022-12-24T13:41:39.851Z,3.40
2022-12-24T13:44:13.681Z,3.13
2022-12-24T13:47:05.753Z,4.30
2022-12-24T13:49:42.077Z,3.75
2022-12-24T13:52:20.613Z,2.85
2022-12-24T13:54:55.929Z,1.92
2022-12-24T13:57:39.821Z,4.15
2022-12-24T14:00:21.546Z,2.47
2022-12-24T14:03:26.633Z,5.47
2022-12-24T14:06:03.179Z,2.10
2022-12-24T14:08:45.544Z,2.72
2022-12-24T14:11:20.461Z,4.55
2022-12-24T14:14:12.457Z,2.97
2022-12-24T14:16:58.736Z,4.32
2022-12-24T14:19:42.483Z,9.63
2022-12-24T14:22:32.256Z,3.85
2022-12-24T14:25:14.684Z,2.88
2022-12-24T14:27:52.898Z,6.50
2022-12-24T14:30:27.969Z,2.10
2022-12-24T14:33:00.600Z,4.80
2022-12-24T14:35:40.558Z,1.50
2022-12-24T14:38:18.481Z,7.20
2022-12-24T14:41:35.987Z,3.78
2022-12-24T14:44:14.472Z,6.82
2022-12-24T14:46:54.564Z,6.20
2022-12-24T14:49:39.345Z,5.50
2022-12-24T14:55:44.215Z,3.85
2022-12-24T14:58:25.921Z,4.25
2022-12-24T15:01:01.256Z,5.38
2022-12-24T15:03:34.018Z,7.00
2022-12-24T15:06:11.053Z,2.92
2022-12-24T15:08:50.259Z,5.95
2022-12-24T15:11:24.709Z,5.72
2022-12-24T15:13:59.610Z,3.65
2022-12-24T15:16:37.248Z,5.95
2022-12-24T15:19:34.690Z,7.70
2022-12-24T15:22:12.078Z,8.57
2022-12-24T15:24:47.791Z,5.20
2022-12-24T15:27:26.148Z,4.10
2022-12-24T15:29:58.932Z,3.85
2022-12-24T15:32:31.516Z,7.05
2022-12-24T15:35:04.294Z,3.95
2022-12-24T15:37:40.385Z,5.15
2022-12-24T15:40:33.464Z,5.18
2022-12-24T15:43:07.001Z,9.23
2022-12-24T15:45:45.747Z,5.00
2022-12-24T15:48:27.283Z,9.70
2022-12-24T15:51:03.103Z,8.48
2022-12-24T15:53:41.897Z,5.40
2022-12-24T15:56:33.249Z,11.90
2022-12-24T15:59:28.463Z,12.75
2022-12-24T16:02:33.754Z,6.50
2022-12-24T16:05:31.631Z,10.25
2022-12-24T16:08:14.303Z,6.65
2022-12-24T16:10:50.765Z,6.35
2022-12-24T16:13:28.691Z,8.48
2022-12-24T16:16:04.465Z,10.50
2022-12-24T16:18:52.047Z,7.55
2022-12-24T16:21:40.169Z,8.65
2022-12-24T16:24:22.735Z,12.90
2022-12-24T16:26:56.388Z,8.10
2022-12-24T16:29:29.274Z,6.68
2022-12-24T16:32:01.852Z,9.13
2022-12-24T16:34:34.572Z,5.30
2022-12-24T16:37:08.369Z,7.30
2022-12-24T16:39:50.000Z,7.53
2022-12-24T16:42:40.885Z,7.60
2022-12-24T16:45:13.412Z,11.05
2022-12-24T16:47:45.949Z,10.98
2022-12-24T16:50:18.794Z,12.63
2022-12-24T16:52:51.383Z,6.22
2022-12-24T16:55:23.940Z,14.82
2022-12-24T16:57:56.443Z,11.18
2022-12-24T17:00:29.127Z,10.02
2022-12-24T17:03:01.790Z,14.40
2022-12-24T17:05:37.967Z,13.73
2022-12-24T17:08:10.946Z,18.52
2022-12-24T17:10:51.942Z,18.27
2022-12-24T17:13:24.805Z,19.65
2022-12-24T17:15:57.482Z,14.40
2022-12-24T17:18:30.267Z,11.82
2022-12-24T17:21:04.336Z,14.27
2022-12-24T17:23:37.224Z,16.48
2022-12-24T17:26:14.940Z,17.30
2022-12-24T17:28:48.103Z,14.07
2022-12-24T17:31:20.801Z,15.10
2022-12-24T17:33:53.980Z,14.48
2022-12-24T17:36:26.665Z,12.82
2022-12-24T17:38:59.236Z,11.95
2022-12-24T17:41:31.846Z,20.98
2022-12-24T17:44:05.200Z,15.50
2022-12-24T17:46:37.918Z,13.55
2022-12-24T17:49:10.761Z,14.88
2022-12-24T17:51:45.719Z,13.38
2022-12-24T17:54:18.927Z,15.52
2022-12-24T17:56:51.531Z,16.60
2022-12-24T17:59:24.179Z,16.55
2022-12-24T18:01:56.781Z,13.50
2022-12-24T18:04:29.491Z,16.98
2022-12-24T18:07:03.256Z,14.50
2022-12-24T18:09:36.024Z,13.23
2022-12-24T18:12:08.773Z,15.48
2022-12-24T18:14:41.479Z,15.27
2022-12-24T18:17:14.477Z,17.02
2022-12-24T18:19:47.031Z,11.77
2022-12-24T18:22:19.708Z,15.10
2022-12-24T18:24:52.325Z,13.65
2022-12-24T18:27:24.887Z,15.25
2022-12-24T18:29:57.378Z,11.75
2022-12-24T18:32:29.946Z,15.60
2022-12-24T18:35:02.724Z,11.60
2022-12-24T18:37:35.282Z,17.27
2022-12-24T18:40:09.390Z,16.08
2022-12-24T18:42:42.499Z,17.67
2022-12-24T18:45:15.182Z,14.75
2022-12-24T18:47:47.775Z,15.18
2022-12-24T18:50:20.338Z,15.48
2022-12-24T18:52:52.881Z,12.75
2022-12-24T18:55:25.450Z,14.27
2022-12-24T18:57:58.009Z,14.55
2022-12-24T19:00:30.822Z,15.88
2022-12-24T19:03:03.492Z,15.02
2022-12-24T19:05:36.091Z,17.13
2022-12-24T19:08:37.810Z,16.45
2022-12-24T19:11:01.135Z,15.85
2022-12-24T19:13:34.418Z,22.33
2022-12-24T19:16:34.012Z,25.15
2022-12-24T19:19:08.809Z,19.77
2022-12-24T19:21:41.367Z,18.73
2022-12-24T19:24:14.631Z,20.27
2022-12-24T19:26:47.182Z,21.25
2022-12-24T19:29:19.920Z,18.05
2022-12-24T19:31:52.671Z,19.85
2022-12-24T19:34:25.523Z,21.45
2022-12-24T19:36:58.182Z,17.75
2022-12-24T19:39:33.485Z,20.33
2022-12-24T19:42:06.185Z,20.45
2022-12-24T19:44:38.776Z,19.48
2022-12-24T19:47:11.285Z,17.77
2022-12-24T19:49:43.867Z,25.48
2022-12-24T19:52:16.490Z,20.40
2022-12-24T19:54:48.991Z,20.42
2022-12-24T19:57:21.547Z,21.10
2022-12-24T19:59:54.144Z,19.85
2022-12-24T20:04:59.870Z,17.10
2022-12-24T20:07:32.694Z,22.30
2022-12-24T20:10:05.684Z,20.33
2022-12-24T20:12:38.236Z,22.92
2022-12-24T20:15:11.561Z,31.33
2022-12-24T20:17:44.706Z,19.10
2022-12-24T20:22:49.619Z,25.80
2022-12-24T20:25:22.153Z,18.52
2022-12-24T20:27:56.004Z,20.20
2022-12-24T20:30:28.828Z,21.73
2022-12-24T20:33:01.416Z,19.70
2022-12-24T20:35:35.621Z,25.23
2022-12-24T20:38:08.217Z,21.95
2022-12-24T20:40:45.286Z,21.13
2022-12-24T20:43:23.918Z,16.98
2022-12-24T20:45:57.452Z,19.05
2022-12-24T20:48:31.334Z,22.38
2022-12-24T20:51:19.196Z,22.17
2022-12-24T20:53:58.462Z,20.75
2022-12-24T20:56:31.866Z,18.00
2022-12-24T20:59:04.631Z,23.17
2022-12-24T21:01:39.050Z,18.63
2022-12-24T21:04:11.914Z,19.05
2022-12-24T21:06:44.499Z,20.15
2022-12-24T21:09:17.117Z,19.35
2022-12-24T21:11:50.431Z,20.98
2022-12-24T21:14:26.242Z,17.33
2022-12-24T21:16:58.901Z,19.80
2022-12-24T21:19:31.578Z,18.42
2022-12-24T21:22:04.199Z,15.43
2022-12-24T21:24:36.796Z,16.10
2022-12-24T21:27:09.336Z,16.48
2022-12-24T21:29:41.978Z,17.42
2022-12-24T21:32:14.643Z,13.45
2022-12-24T21:34:47.201Z,14.52
2022-12-24T21:37:20.279Z,17.73
2022-12-24T21:39:52.824Z,14.45
2022-12-24T21:42:26.816Z,16.60
2022-12-24T21:44:59.485Z,16.48
2022-12-24T21:47:31.945Z,15.18
2022-12-24T21:50:26.823Z,15.75
2022-12-24T21:53:22.821Z,13.70
2022-12-24T21:55:55.358Z,19.30
2022-12-24T21:58:27.815Z,15.02
2022-12-24T22:01:10.417Z,18.08
2022-12-24T22:03:43.599Z,15.65
2022-12-24T22:09:25.507Z,16.38
2022-12-24T22:11:58.170Z,16.25
2022-12-24T22:14:30.739Z,16.13
2022-12-24T22:17:03.416Z,17.90
2022-12-24T22:19:36.080Z,19.38
2022-12-24T22:22:08.992Z,16.20
2022-12-24T22:24:41.645Z,19.15
2022-12-24T22:27:14.220Z,19.15
2022-12-24T22:29:46.911Z,19.17
2022-12-24T22:32:19.755Z,17.20
2022-12-24T22:34:53.972Z,18.60
2022-12-24T22:37:26.676Z,17.48
2022-12-24T22:39:59.267Z,16.08
2022-12-24T22:42:35.788Z,16.45
2022-12-24T22:45:08.863Z,15.57
2022-12-24T22:47:41.415Z,15.40
2022-12-24T22:50:14.024Z,12.63
2022-12-24T22:52:46.591Z,15.20
2022-12-24T22:55:19.190Z,16.02
2022-12-24T22:57:51.681Z,23.05
2022-12-24T23:00:44.932Z,17.45
2022-12-24T23:03:17.984Z,16.02
2022-12-24T23:08:31.518Z,14.65
2022-12-24T23:11:13.266Z,14.95
2022-12-24T23:14:04.426Z,16.15
2022-12-24T23:16:37.221Z,16.88
2022-12-24T23:19:09.955Z,10.50
2022-12-24T23:21:42.517Z,13.15
2022-12-24T23:24:15.119Z,12.32
2022-12-24T23:26:47.670Z,18.50
2022-12-24T23:29:20.363Z,15.57
2022-12-24T23:31:52.953Z,13.77
2022-12-24T23:34:25.998Z,15.75
2022-12-24T23:36:58.532Z,13.23
2022-12-24T23:39:31.094Z,12.90
2022-12-24T23:42:03.663Z,11.95
2022-12-24T23:44:36.530Z,10.73
2022-12-24T23:47:09.053Z,15.32
2022-12-24T23:49:43.131Z,13.55
2022-12-24T23:52:15.890Z,13.48
2022-12-24T23:54:48.391Z,10.88
2022-12-24T23:57:20.996Z,10.95
2022-12-24T23:59:53.714Z,13.43
